Time;durP1;ratioP1;P1;durP2;ratioP2;P2;SDS_P1;SDS_P2;PMS_P1;PMS_P2;Temp;Humidity;BMP_temperature;BMP_pressure;BME280_temperature;BME280_humidity;BME280_pressure;Samples;Min_cycle;Max_cycle;Signal;HPM_P1;HPM_P2
2023/06/11 00:00:11;;;;;;;4.88;4.38;;;;;;;;;;5055896;28;20025;-60
2023/06/11 00:02:41;;;;;;;4.28;3.85;;;;;;;;;;5056461;28;20021;-60
2023/06/11 00:05:07;;;;;;;4.63;4.05;;;;;;;;;;5055791;28;20029;-60
2023/06/11 00:07:34;;;;;;;3.95;3.55;;;;;;;;;;5056330;28;20463;-60
2023/06/11 00:10:00;;;;;;;5.00;4.50;;;;;;;;;;5056190;28;20347;-60
2023/06/11 00:12:26;;;;;;;7.20;4.43;;;;;;;;;;5055700;28;20025;-60
2023/06/11 00:14:52;;;;;;;4.72;4.20;;;;;;;;;;5055874;28;20091;-60
2023/06/11 00:17:18;;;;;;;4.70;4.07;;;;;;;;;;5055904;28;20470;-60
2023/06/11 00:19:47;;;;;;;5.10;3.83;;;;;;;;;;5055796;28;20017;-60
2023/06/11 00:22:14;;;;;;;5.40;4.25;;;;;;;;;;5055458;28;20025;-60
2023/06/11 00:24:40;;;;;;;4.65;4.20;;;;;;;;;;5055492;28;20028;-60
2023/06/11 00:27:06;;;;;;;4.60;4.03;;;;;;;;;;5055147;28;20029;-60
2023/06/11 00:29:32;;;;;;;6.38;4.15;;;;;;;;;;5055448;28;20036;-60
2023/06/11 00:31:58;;;;;;;4.85;4.20;;;;;;;;;;5055644;28;20099;-60
2023/06/11 00:34:25;;;;;;;6.00;4.63;;;;;;;;;;5055274;28;20112;-60
2023/06/11 00:36:52;;;;;;;5.60;4.68;;;;;;;;;;5056674;28;20056;-60
2023/06/11 00:39:18;;;;;;;4.25;3.67;;;;;;;;;;5055725;28;20063;-60
2023/06/11 00:41:45;;;;;;;4.65;4.10;;;;;;;;;;5055215;28;20068;-60
2023/06/11 00:44:17;;;;;;;5.30;4.80;;;;;;;;;;5055634;28;20391;-60
2023/06/11 00:46:47;;;;;;;6.25;4.50;;;;;;;;;;5055101;28;20028;-60
2023/06/11 00:49:13;;;;;;;6.00;4.80;;;;;;;;;;5055011;28;20076;-60
2023/06/11 00:51:43;;;;;;;6.00;5.35;;;;;;;;;;5054963;28;20032;-60
2023/06/11 00:54:12;;;;;;;;;;;;;;;;;;5055785;28;20025;-60
2023/06/11 00:56:39;;;;;;;4.20;3.80;;;;;;;;;;5054803;28;19905;-60
2023/06/11 00:59:07;;;;;;;5.07;4.57;;;;;;;;;;5054033;28;20390;-60
2023/06/11 01:01:35;;;;;;;4.93;4.38;;;;;;;;;;5054738;28;20068;-60
2023/06/11 01:04:01;;;;;;;6.18;4.47;;;;;;;;;;5054599;28;20485;-60
2023/06/11 01:06:29;;;;;;;5.85;4.50;;;;;;;;;;5054749;28;20031;-60
2023/06/11 01:08:57;;;;;;;4.53;4.00;;;;;;;;;;5055114;28;20028;-60
2023/06/11 01:11:23;;;;;;;6.55;4.30;;;;;;;;;;5055111;28;20021;-60
2023/06/11 01:13:51;;;;;;;5.05;4.18;;;;;;;;;;5054431;28;20052;-60
2023/06/11 01:16:23;;;;;;;5.07;4.57;;;;;;;;;;5055092;28;20413;-60
2023/06/11 01:19:03;;;;;;;5.22;4.35;;;;;;;;;;5055025;28;20024;-60
2023/06/11 01:21:33;;;;;;;5.30;4.53;;;;;;;;;;5055006;28;20021;-60
2023/06/11 01:24:09;;;;;;;5.18;4.55;;;;;;;;;;5054684;28;20078;-60
2023/06/11 01:26:43;;;;;;;6.22;4.47;;;;;;;;;;5055110;28;20021;-60
2023/06/11 01:29:10;;;;;;;5.38;4.82;;;;;;;;;;5054314;28;20016;-60
2023/06/11 01:31:37;;;;;;;5.50;4.35;;;;;;;;;;5055002;28;20033;-60
2023/06/11 01:34:04;;;;;;;5.20;4.70;;;;;;;;;;5053877;28;20378;-60
2023/06/11 01:36:34;;;;;;;5.25;4.75;;;;;;;;;;5054977;28;20443;-60
2023/06/11 01:39:01;;;;;;;5.47;4.38;;;;;;;;;;5054484;28;20049;-60
2023/06/11 01:41:27;;;;;;;4.47;4.07;;;;;;;;;;5053977;28;20025;-60
2023/06/11 01:43:53;;;;;;;5.03;4.45;;;;;;;;;;5053993;28;20059;-60
2023/06/11 01:46:19;;;;;;;5.25;4.07;;;;;;;;;;5054384;28;20100;-60
2023/06/11 01:48:45;;;;;;;5.47;4.93;;;;;;;;;;5053974;28;20036;-60
2023/06/11 01:51:14;;;;;;;5.45;4.95;;;;;;;;;;5053893;28;20455;-60
2023/06/11 01:53:40;;;;;;;4.63;4.03;;;;;;;;;;5054621;28;20060;-60
2023/06/11 01:56:06;;;;;;;5.28;4.20;;;;;;;;;;5054212;28;20017;-60
2023/06/11 01:58:32;;;;;;;5.15;4.65;;;;;;;;;;5053832;28;20031;-60
2023/06/11 02:00:59;;;;;;;5.07;4.53;;;;;;;;;;5053702;28;20025;-60
2023/06/11 02:03:25;;;;;;;4.70;4.03;;;;;;;;;;5054264;28;20054;-60
2023/06/11 02:05:51;;;;;;;5.65;4.45;;;;;;;;;;5053663;28;20025;-60
2023/06/11 02:08:17;;;;;;;5.70;4.63;;;;;;;;;;5053745;28;20028;-60
2023/06/11 02:10:44;;;;;;;7.70;4.78;;;;;;;;;;5053626;28;20336;-60
2023/06/11 02:13:10;;;;;;;4.53;4.13;;;;;;;;;;5053480;28;20057;-60
2023/06/11 02:15:36;;;;;;;5.57;4.60;;;;;;;;;;5053642;28;20035;-60
2023/06/11 02:18:02;;;;;;;5.88;5.18;;;;;;;;;;5053682;28;20391;-60
2023/06/11 02:20:28;;;;;;;4.45;4.05;;;;;;;;;;5053282;28;20032;-60
2023/06/11 02:22:54;;;;;;;5.05;4.50;;;;;;;;;;5053561;28;20025;-60
2023/06/11 02:25:20;;;;;;;4.45;4.05;;;;;;;;;;5053512;28;20359;-60
2023/06/11 02:27:48;;;;;;;5.28;4.60;;;;;;;;;;5053874;28;20075;-60
2023/06/11 02:30:14;;;;;;;5.20;4.53;;;;;;;;;;5053980;28;20060;-60
2023/06/11 02:32:40;;;;;;;5.15;4.53;;;;;;;;;;5053435;28;20349;-60
2023/06/11 02:35:06;;;;;;;5.53;4.80;;;;;;;;;;5053418;28;20107;-60
2023/06/11 02:37:32;;;;;;;4.82;4.32;;;;;;;;;;5054339;28;20348;-60
2023/06/11 02:39:58;;;;;;;4.85;4.25;;;;;;;;;;5053703;28;20033;-60
2023/06/11 02:42:24;;;;;;;5.07;4.38;;;;;;;;;;5053434;28;20375;-60
2023/06/11 02:44:50;;;;;;;5.72;4.70;;;;;;;;;;5053343;28;20040;-60
2023/06/11 02:47:16;;;;;;;4.03;3.60;;;;;;;;;;5053394;28;20052;-60
2023/06/11 02:49:42;;;;;;;5.55;4.70;;;;;;;;;;5053380;28;20470;-60
2023/06/11 02:52:08;;;;;;;7.18;4.78;;;;;;;;;;5053870;28;20087;-60
2023/06/11 02:54:34;;;;;;;5.38;4.07;;;;;;;;;;5052987;28;20032;-60
2023/06/11 02:57:00;;;;;;;4.88;4.25;;;;;;;;;;5053859;28;20078;-60
2023/06/11 02:59:26;;;;;;;4.60;3.65;;;;;;;;;;5054058;28;20446;-60
2023/06/11 03:01:52;;;;;;;4.07;3.67;;;;;;;;;;5053531;28;20493;-60
2023/06/11 03:04:18;;;;;;;5.00;4.50;;;;;;;;;;5053447;28;20025;-60
2023/06/11 03:06:44;;;;;;;5.18;4.38;;;;;;;;;;5053471;28;20056;-60
2023/06/11 03:09:10;;;;;;;4.57;4.13;;;;;;;;;;5053199;28;20167;-60
2023/06/11 03:11:36;;;;;;;4.05;3.65;;;;;;;;;;5053668;28;20507;-60
2023/06/11 03:14:02;;;;;;;4.18;3.78;;;;;;;;;;5053810;28;20399;-60
2023/06/11 03:16:27;;;;;;;5.03;4.25;;;;;;;;;;5053261;28;20348;-60
2023/06/11 03:18:53;;;;;;;5.13;3.97;;;;;;;;;;5053840;28;20070;-60
2023/06/11 03:21:19;;;;;;;4.50;3.97;;;;;;;;;;5054638;28;20017;-60
2023/06/11 03:23:45;;;;;;;4.95;4.47;;;;;;;;;;5057221;28;20119;-60
2023/06/11 03:26:11;;;;;;;5.93;5.00;;;;;;;;;;5057218;28;20021;-60
2023/06/11 03:28:37;;;;;;;4.35;3.78;;;;;;;;;;5056487;28;20455;-59
2023/06/11 03:31:03;;;;;;;5.47;4.55;;;;;;;;;;5056251;28;20025;-60
2023/06/11 03:33:29;;;;;;;4.13;3.72;;;;;;;;;;5056448;28;20143;-60
2023/06/11 03:35:55;;;;;;;4.80;3.83;;;;;;;;;;5056439;28;20071;-60
2023/06/11 03:38:21;;;;;;;7.10;4.20;;;;;;;;;;5057252;28;20025;-60
2023/06/11 03:40:47;;;;;;;6.38;4.28;;;;;;;;;;5056717;28;20025;-60
2023/06/11 03:43:13;;;;;;;6.28;4.47;;;;;;;;;;5056367;28;20036;-60
2023/06/11 03:45:39;;;;;;;6.68;4.65;;;;;;;;;;5056351;28;20452;-60
2023/06/11 03:48:05;;;;;;;4.32;3.83;;;;;;;;;;5056366;28;20371;-60
2023/06/11 03:50:31;;;;;;;4.38;3.72;;;;;;;;;;5056480;28;20025;-60
2023/06/11 03:52:57;;;;;;;5.15;4.45;;;;;;;;;;5056174;28;20465;-60
2023/06/11 03:55:23;;;;;;;5.30;4.72;;;;;;;;;;5056120;28;20462;-60
2023/06/11 03:57:50;;;;;;;4.70;4.18;;;;;;;;;;5056188;28;20032;-60
2023/06/11 04:00:16;;;;;;;4.40;3.83;;;;;;;;;;5056281;28;20477;-60
2023/06/11 04:02:42;;;;;;;4.32;3.75;;;;;;;;;;5056049;28;20059;-60
2023/06/11 04:05:08;;;;;;;6.28;5.32;;;;;;;;;;5056159;28;20029;-60
2023/06/11 04:07:35;;;;;;;5.07;4.53;;;;;;;;;;5056540;28;20025;-60
2023/06/11 04:10:01;;;;;;;4.97;4.50;;;;;;;;;;5055804;28;20039;-60
2023/06/11 04:12:28;;;;;;;4.65;3.80;;;;;;;;;;5055606;28;20059;-60
2023/06/11 04:14:54;;;;;;;5.75;4.82;;;;;;;;;;5055766;28;20052;-60
2023/06/11 04:17:20;;;;;;;5.50;4.32;;;;;;;;;;5056258;28;20025;-60
2023/06/11 04:19:46;;;;;;;5.95;4.97;;;;;;;;;;5055732;28;20025;-60
2023/06/11 04:22:12;;;;;;;6.18;4.93;;;;;;;;;;5055274;28;20025;-60
2023/06/11 04:24:38;;;;;;;4.90;4.15;;;;;;;;;;5055855;28;20032;-60
2023/06/11 04:27:06;;;;;;;6.05;4.35;;;;;;;;;;5055567;28;20029;-60
2023/06/11 04:29:33;;;;;;;5.25;4.25;;;;;;;;;;5055241;28;20032;-60
2023/06/11 04:32:02;;;;;;;5.10;4.60;;;;;;;;;;5055893;28;20031;-60
2023/06/11 04:34:29;;;;;;;7.53;4.72;;;;;;;;;;5055353;28;20039;-60
2023/06/11 04:36:55;;;;;;;5.18;4.00;;;;;;;;;;5055615;28;20135;-60
2023/06/11 04:39:22;;;;;;;4.32;3.92;;;;;;;;;;5055380;28;20025;-60
2023/06/11 04:41:48;;;;;;;4.72;4.20;;;;;;;;;;5055497;28;20104;-60
2023/06/11 04:44:16;;;;;;;5.47;4.40;;;;;;;;;;5055731;28;20032;-60
2023/06/11 04:46:43;;;;;;;5.22;4.10;;;;;;;;;;5055834;28;20059;-60
2023/06/11 04:49:09;;;;;;;4.55;4.10;;;;;;;;;;5055117;28;20025;-60
2023/06/11 04:51:40;;;;;;;6.70;4.35;;;;;;;;;;5055891;28;20504;-60
2023/06/11 04:54:07;;;;;;;5.22;4.10;;;;;;;;;;5054989;28;20124;-60
2023/06/11 04:56:36;;;;;;;4.65;4.25;;;;;;;;;;5055599;28;20447;-60
2023/06/11 04:59:03;;;;;;;5.13;4.53;;;;;;;;;;5055720;28;20033;-60
2023/06/11 05:01:32;;;;;;;5.15;4.05;;;;;;;;;;5055390;28;20025;-60
2023/06/11 05:03:58;;;;;;;5.53;4.30;;;;;;;;;;5055407;28;20371;-60
2023/06/11 05:06:25;;;;;;;10.38;4.95;;;;;;;;;;5055469;28;20032;-60
2023/06/11 05:08:52;;;;;;;5.55;4.45;;;;;;;;;;5054689;28;20059;-60
2023/06/11 05:11:18;;;;;;;4.65;4.18;;;;;;;;;;5054698;28;20025;-60
2023/06/11 05:13:44;;;;;;;4.55;3.70;;;;;;;;;;5054675;28;20538;-60
2023/06/11 05:16:10;;;;;;;6.53;4.25;;;;;;;;;;5054573;28;20400;-60
2023/06/11 05:18:36;;;;;;;4.78;4.28;;;;;;;;;;5054597;28;20029;-60
2023/06/11 05:21:02;;;;;;;5.18;4.57;;;;;;;;;;5054231;28;20036;-60
2023/06/11 05:23:31;;;;;;;4.90;4.03;;;;;;;;;;5054763;28;20025;-60
2023/06/11 05:26:08;;;;;;;5.85;4.68;;;;;;;;;;5054735;28;20021;-60
2023/06/11 05:28:34;;;;;;;5.05;4.47;;;;;;;;;;5054931;28;20116;-60
2023/06/11 05:31:03;;;;;;;6.53;3.97;;;;;;;;;;5054623;28;20078;-60
2023/06/11 05:33:30;;;;;;;5.03;4.43;;;;;;;;;;5054135;28;20086;-60
2023/06/11 05:35:56;;;;;;;5.55;4.38;;;;;;;;;;5054205;28;20037;-60
2023/06/11 05:38:23;;;;;;;4.63;4.22;;;;;;;;;;5054766;28;20048;-60
2023/06/11 05:40:50;;;;;;;4.47;4.00;;;;;;;;;;5054945;28;20107;-60
2023/06/11 05:43:15;;;;;;;5.68;4.70;;;;;;;;;;5054102;28;20033;-60
2023/06/11 05:45:51;;;;;;;5.72;5.05;;;;;;;;;;5054326;28;20028;-60
2023/06/11 05:48:17;;;;;;;4.28;3.88;;;;;;;;;;5054689;28;20028;-60
2023/06/11 05:50:43;;;;;;;4.68;3.88;;;;;;;;;;5053999;28;20021;-60
2023/06/11 05:53:09;;;;;;;4.90;3.90;;;;;;;;;;5054422;28;20021;-60
2023/06/11 05:55:37;;;;;;;5.80;4.28;;;;;;;;;;5054207;28;20035;-60
2023/06/11 05:58:04;;;;;;;5.28;4.40;;;;;;;;;;5054770;28;20111;-60
2023/06/11 06:00:30;;;;;;;4.50;3.80;;;;;;;;;;5053928;28;20017;-60
2023/06/11 06:02:55;;;;;;;5.28;4.65;;;;;;;;;;5053801;28;20024;-60
2023/06/11 06:05:22;;;;;;;4.07;3.67;;;;;;;;;;5053698;28;20092;-59
2023/06/11 06:07:48;;;;;;;6.20;4.32;;;;;;;;;;5053805;28;20027;-60
2023/06/11 06:10:15;;;;;;;5.70;4.13;;;;;;;;;;5053758;28;20100;-60
2023/06/11 06:12:40;;;;;;;5.35;4.85;;;;;;;;;;5053813;28;20363;-60
2023/06/11 06:15:07;;;;;;;5.32;4.82;;;;;;;;;;5053946;28;20124;-60
2023/06/11 06:17:33;;;;;;;3.67;3.35;;;;;;;;;;5053959;28;20116;-60
2023/06/11 06:19:59;;;;;;;4.65;4.15;;;;;;;;;;5053731;28;20057;-60
2023/06/11 06:22:25;;;;;;;7.82;4.05;;;;;;;;;;5053699;28;20067;-60
2023/06/11 06:24:51;;;;;;;4.60;3.83;;;;;;;;;;5053601;28;20032;-60
2023/06/11 06:27:17;;;;;;;5.45;4.50;;;;;;;;;;5053684;28;20029;-60
2023/06/11 06:29:43;;;;;;;4.82;4.13;;;;;;;;;;5053627;28;20048;-60
2023/06/11 06:32:09;;;;;;;7.03;4.65;;;;;;;;;;5053991;28;20029;-60
2023/06/11 06:34:35;;;;;;;4.90;4.35;;;;;;;;;;5053513;28;20496;-60
2023/06/11 06:37:02;;;;;;;4.43;4.03;;;;;;;;;;5054100;28;20052;-60
2023/06/11 06:39:28;;;;;;;4.40;3.97;;;;;;;;;;5054101;28;20078;-60
2023/06/11 06:41:54;;;;;;;4.38;3.95;;;;;;;;;;5053444;28;20025;-60
2023/06/11 06:44:20;;;;;;;5.28;4.65;;;;;;;;;;5053495;28;20505;-60
2023/06/11 06:46:46;;;;;;;4.13;3.70;;;;;;;;;;5053822;28;20033;-60
2023/06/11 06:49:12;;;;;;;6.00;5.40;;;;;;;;;;5053325;28;20021;-60
2023/06/11 06:51:38;;;;;;;4.47;4.05;;;;;;;;;;5053988;28;20108;-60
2023/06/11 06:54:04;;;;;;;5.03;4.03;;;;;;;;;;5053238;28;20052;-60
2023/06/11 06:56:30;;;;;;;4.75;4.18;;;;;;;;;;5055815;28;20078;-60
2023/06/11 06:58:56;;;;;;;4.22;3.67;;;;;;;;;;5057291;28;20036;-60
2023/06/11 07:01:22;;;;;;;4.30;3.90;;;;;;;;;;5057236;28;20029;-60
2023/06/11 07:03:48;;;;;;;5.47;4.00;;;;;;;;;;5057586;28;20082;-60
2023/06/11 07:06:14;;;;;;;5.05;4.32;;;;;;;;;;5057044;28;20078;-60
2023/06/11 07:08:40;;;;;;;4.32;3.85;;;;;;;;;;5057793;28;20025;-60
2023/06/11 07:11:07;;;;;;;4.40;3.78;;;;;;;;;;5056996;28;20032;-60
2023/06/11 07:13:33;;;;;;;7.20;4.88;;;;;;;;;;5057263;28;20128;-60
2023/06/11 07:15:58;;;;;;;4.93;4.43;;;;;;;;;;5056794;28;20116;-60
2023/06/11 07:18:26;;;;;;;5.07;4.05;;;;;;;;;;5056826;28;20017;-60
2023/06/11 07:20:52;;;;;;;4.85;4.43;;;;;;;;;;5057293;28;20025;-60
2023/06/11 07:23:18;;;;;;;5.32;4.40;;;;;;;;;;5056752;28;20344;-60
2023/06/11 07:25:45;;;;;;;5.13;3.90;;;;;;;;;;5056455;28;20025;-60
2023/06/11 07:28:11;;;;;;;5.43;3.83;;;;;;;;;;5057279;28;20025;-60
2023/06/11 07:30:37;;;;;;;4.93;4.32;;;;;;;;;;5056666;28;20017;-60
2023/06/11 07:33:05;;;;;;;5.43;4.60;;;;;;;;;;5056425;28;20482;-60
2023/06/11 07:35:31;;;;;;;4.80;4.30;;;;;;;;;;5057091;28;20029;-60
2023/06/11 07:37:57;;;;;;;4.35;3.85;;;;;;;;;;5056483;28;20530;-60
2023/06/11 07:40:23;;;;;;;4.75;4.10;;;;;;;;;;5056744;28;20021;-59
2023/06/11 07:42:49;;;;;;;4.78;3.95;;;;;;;;;;5056478;28;20028;-60
2023/06/11 07:45:15;;;;;;;4.30;3.90;;;;;;;;;;5056921;28;20017;-60
2023/06/11 07:47:41;;;;;;;4.70;3.60;;;;;;;;;;5056617;28;20364;-60
2023/06/11 07:50:08;;;;;;;4.50;4.10;;;;;;;;;;5056330;28;20021;-60
2023/06/11 07:52:34;;;;;;;3.72;3.35;;;;;;;;;;5056549;28;20033;-60
2023/06/11 07:55:00;;;;;;;4.60;3.80;;;;;;;;;;5055749;28;20383;-60
2023/06/11 07:57:26;;;;;;;4.13;3.72;;;;;;;;;;5056428;28;20118;-60
2023/06/11 07:59:53;;;;;;;4.55;3.83;;;;;;;;;;5056683;28;20075;-60
2023/06/11 08:02:19;;;;;;;3.90;3.47;;;;;;;;;;5056027;28;20060;-60
2023/06/11 08:04:45;;;;;;;4.97;4.47;;;;;;;;;;5056135;28;20033;-60
2023/06/11 08:07:12;;;;;;;4.25;3.42;;;;;;;;;;5056192;28;20032;-60
2023/06/11 08:09:38;;;;;;;4.75;3.50;;;;;;;;;;5055522;28;20364;-60
2023/06/11 08:12:05;;;;;;;4.78;3.95;;;;;;;;;;5056326;28;20075;-60
2023/06/11 08:14:32;;;;;;;6.80;4.10;;;;;;;;;;5055230;28;20135;-60
2023/06/11 08:16:58;;;;;;;4.45;3.72;;;;;;;;;;5056323;28;20021;-60
2023/06/11 08:19:24;;;;;;;5.28;3.83;;;;;;;;;;5055850;28;20360;-60
2023/06/11 08:21:50;;;;;;;4.35;3.63;;;;;;;;;;5056109;28;20029;-60
2023/06/11 08:24:18;;;;;;;4.22;3.80;;;;;;;;;;5055938;28;20021;-60
2023/06/11 08:26:44;;;;;;;3.97;3.55;;;;;;;;;;5056394;28;20025;-60
2023/06/11 08:29:10;;;;;;;4.13;3.28;;;;;;;;;;5055317;28;20025;-60
2023/06/11 08:31:37;;;;;;;4.20;3.60;;;;;;;;;;5055479;28;20025;-60
2023/06/11 08:34:03;;;;;;;4.40;3.85;;;;;;;;;;5055885;28;20032;-60
2023/06/11 08:36:29;;;;;;;4.82;4.10;;;;;;;;;;5056288;28;20021;-60
2023/06/11 08:38:55;;;;;;;7.70;3.90;;;;;;;;;;5055428;28;20450;-60
2023/06/11 08:41:22;;;;;;;3.67;3.35;;;;;;;;;;5055319;28;20465;-60
2023/06/11 08:43:48;;;;;;;3.70;3.28;;;;;;;;;;5055751;28;20037;-60
2023/06/11 08:46:14;;;;;;;4.65;3.90;;;;;;;;;;5055357;28;20433;-60
2023/06/11 08:48:42;;;;;;;5.25;3.63;;;;;;;;;;5055192;28;20053;-60
2023/06/11 08:51:09;;;;;;;5.00;4.30;;;;;;;;;;5055189;28;20032;-60
2023/06/11 08:53:36;;;;;;;4.72;3.58;;;;;;;;;;5054965;28;20087;-60
2023/06/11 08:56:02;;;;;;;3.85;3.22;;;;;;;;;;5055705;28;20055;-60
2023/06/11 08:58:31;;;;;;;4.18;3.70;;;;;;;;;;5054654;28;20051;-60
2023/06/11 09:00:57;;;;;;;4.78;3.58;;;;;;;;;;5055501;28;20402;-60
2023/06/11 09:03:23;;;;;;;4.53;3.63;;;;;;;;;;5055474;28;20111;-60
2023/06/11 09:05:49;;;;;;;9.32;3.92;;;;;;;;;;5054805;28;20370;-60
2023/06/11 09:08:15;;;;;;;5.47;3.90;;;;;;;;;;5055386;28;20470;-60
2023/06/11 09:10:51;;;;;;;4.85;3.58;;;;;;;;;;5054731;28;20021;-60
2023/06/11 09:13:17;;;;;;;4.15;3.40;;;;;;;;;;5054495;28;20368;-60
2023/06/11 09:15:50;;;;;;;4.50;3.38;;;;;;;;;;5054753;28;20025;-60
2023/06/11 09:18:21;;;;;;;4.25;3.47;;;;;;;;;;5054673;28;20107;-60
2023/06/11 09:20:51;;;;;;;4.07;3.67;;;;;;;;;;5054574;28;20390;-60
2023/06/11 09:23:23;;;;;;;4.15;3.72;;;;;;;;;;5054320;28;20021;-60
2023/06/11 09:25:49;;;;;;;6.70;3.55;;;;;;;;;;5054498;28;20029;-60
2023/06/11 09:28:15;;;;;;;5.47;3.38;;;;;;;;;;5054503;28;20522;-60
2023/06/11 09:30:41;;;;;;;4.00;3.55;;;;;;;;;;5054932;28;20052;-60
2023/06/11 09:33:15;;;;;;;3.90;3.42;;;;;;;;;;5054301;28;20021;-60
2023/06/11 09:35:44;;;;;;;4.72;3.50;;;;;;;;;;5054867;28;20111;-60
2023/06/11 09:38:14;;;;;;;5.93;3.92;;;;;;;;;;5054276;28;20067;-60
2023/06/11 09:40:40;;;;;;;;;;;;;;;;;;5055504;28;20432;-60
2023/06/11 09:43:06;;;;;;;4.68;3.50;;;;;;;;;;5054027;28;19936;-60
2023/06/11 09:45:32;;;;;;;3.95;3.55;;;;;;;;;;5054847;28;20060;-60
2023/06/11 09:47:59;;;;;;;4.93;3.95;;;;;;;;;;5054108;28;20070;-60
2023/06/11 09:50:26;;;;;;;4.28;3.88;;;;;;;;;;5054075;28;20119;-60
2023/06/11 09:52:52;;;;;;;5.70;3.88;;;;;;;;;;5054273;28;20025;-60
2023/06/11 09:55:21;;;;;;;4.43;3.60;;;;;;;;;;5053970;28;20025;-60
2023/06/11 09:57:48;;;;;;;4.88;3.95;;;;;;;;;;5054256;28;20100;-60
2023/06/11 10:00:15;;;;;;;4.85;3.58;;;;;;;;;;5053967;28;20025;-60
2023/06/11 10:02:42;;;;;;;5.22;3.90;;;;;;;;;;5054185;28;20024;-60
2023/06/11 10:05:09;;;;;;;6.53;3.63;;;;;;;;;;5054008;28;20029;-60
2023/06/11 10:07:49;;;;;;;5.43;3.35;;;;;;;;;;5054161;28;20025;-60
2023/06/11 10:10:18;;;;;;;3.70;3.38;;;;;;;;;;5053998;28;20086;-60
2023/06/11 10:12:53;;;;;;;6.85;4.05;;;;;;;;;;5053576;28;20032;-60
2023/06/11 10:15:23;;;;;;;5.97;3.65;;;;;;;;;;5053962;28;20124;-60
2023/06/11 10:17:50;;;;;;;4.43;3.53;;;;;;;;;;5054293;28;20029;-60
2023/06/11 10:20:35;;;;;;;3.58;3.28;;;;;;;;;;5053596;28;20032;-60
2023/06/11 10:23:05;;;;;;;4.15;3.58;;;;;;;;;;5054277;28;20028;-60
2023/06/11 10:25:34;;;;;;;5.68;4.07;;;;;;;;;;5054212;28;20417;-60
2023/06/11 10:28:00;;;;;;;3.88;3.25;;;;;;;;;;5053738;28;20028;-60
2023/06/11 10:30:26;;;;;;;4.38;3.45;;;;;;;;;;5055820;28;20025;-58
2023/06/11 10:32:58;;;;;;;6.55;3.65;;;;;;;;;;5057740;28;20025;-58
2023/06/11 10:35:24;;;;;;;4.38;3.75;;;;;;;;;;5057610;28;20037;-58
2023/06/11 10:37:50;;;;;;;4.10;3.60;;;;;;;;;;5058126;28;20021;-58
2023/06/11 10:40:16;;;;;;;7.18;3.53;;;;;;;;;;5057673;28;20017;-58
2023/06/11 10:42:43;;;;;;;4.63;3.38;;;;;;;;;;5057998;28;20021;-58
2023/06/11 10:45:10;;;;;;;4.05;3.10;;;;;;;;;;5057369;28;20021;-58
2023/06/11 10:47:46;;;;;;;4.55;3.50;;;;;;;;;;5057440;28;20542;-58
2023/06/11 10:50:13;;;;;;;3.92;3.10;;;;;;;;;;5057901;28;20124;-58
2023/06/11 10:52:52;;;;;;;4.38;3.97;;;;;;;;;;5058080;28;20347;-58
2023/06/11 10:55:20;;;;;;;3.83;3.10;;;;;;;;;;5057726;28;20075;-58
2023/06/11 10:57:46;;;;;;;5.70;3.38;;;;;;;;;;5057541;28;20455;-58
2023/06/11 11:00:13;;;;;;;4.43;3.60;;;;;;;;;;5057654;28;20033;-58
2023/06/11 11:02:39;;;;;;;4.03;3.03;;;;;;;;;;5056960;28;20025;-59
2023/06/11 11:05:07;;;;;;;5.82;3.88;;;;;;;;;;5056879;28;20061;-59
2023/06/11 11:07:34;;;;;;;4.28;3.72;;;;;;;;;;5057329;28;20029;-59
2023/06/11 11:10:01;;;;;;;4.22;3.50;;;;;;;;;;5056925;28;20013;-59
2023/06/11 11:12:27;;;;;;;5.32;4.32;;;;;;;;;;5056853;28;20025;-59
2023/06/11 11:14:53;;;;;;;6.38;3.67;;;;;;;;;;5057762;28;20049;-59
2023/06/11 11:17:19;;;;;;;4.20;3.80;;;;;;;;;;5057152;28;20431;-59
2023/06/11 11:19:45;;;;;;;4.80;3.78;;;;;;;;;;5056938;28;20114;-59
2023/06/11 11:22:14;;;;;;;4.20;3.42;;;;;;;;;;5056863;28;20021;-59
2023/06/11 11:24:40;;;;;;;4.22;3.75;;;;;;;;;;5056760;28;20025;-59
2023/06/11 11:27:06;;;;;;;5.28;3.95;;;;;;;;;;5057036;28;20090;-59
2023/06/11 11:29:32;;;;;;;4.05;3.15;;;;;;;;;;5056646;28;20032;-59
2023/06/11 11:31:59;;;;;;;5.57;4.05;;;;;;;;;;5056638;28;20029;-59
2023/06/11 11:34:26;;;;;;;5.00;3.78;;;;;;;;;;5056811;28;20039;-59
2023/06/11 11:36:55;;;;;;;9.50;3.70;;;;;;;;;;5056865;28;20068;-59
2023/06/11 11:39:21;;;;;;;3.97;3.50;;;;;;;;;;5056906;28;20029;-59
2023/06/11 11:41:50;;;;;;;4.68;3.67;;;;;;;;;;5055662;28;20025;-59
2023/06/11 11:44:16;;;;;;;6.87;3.63;;;;;;;;;;5056373;28;20040;-59
2023/06/11 11:46:42;;;;;;;4.20;3.60;;;;;;;;;;5056813;28;20260;-59
2023/06/11 11:49:09;;;;;;;4.55;4.00;;;;;;;;;;5056162;28;20344;-59
2023/06/11 11:51:40;;;;;;;4.45;3.90;;;;;;;;;;5056954;28;20025;-59
2023/06/11 11:54:07;;;;;;;5.00;3.88;;;;;;;;;;5055896;28;20110;-59
2023/06/11 11:56:33;;;;;;;10.63;3.53;;;;;;;;;;5056667;28;20031;-59
2023/06/11 11:58:59;;;;;;;3.47;3.17;;;;;;;;;;5056086;28;20056;-59
2023/06/11 12:01:36;;;;;;;4.53;3.65;;;;;;;;;;5055998;28;20415;-59
2023/06/11 12:04:03;;;;;;;4.03;3.60;;;;;;;;;;5056535;28;20096;-59
2023/06/11 12:06:32;;;;;;;3.92;3.10;;;;;;;;;;5056843;28;20048;-59
2023/06/11 12:08:58;;;;;;;4.60;3.63;;;;;;;;;;5055870;28;20036;-59
2023/06/11 12:11:24;;;;;;;5.10;3.60;;;;;;;;;;5056391;28;20032;-59
2023/06/11 12:13:50;;;;;;;5.95;3.72;;;;;;;;;;5055420;28;20498;-59
2023/06/11 12:16:16;;;;;;;5.70;3.78;;;;;;;;;;5055727;28;20032;-59
2023/06/11 12:18:42;;;;;;;4.68;4.05;;;;;;;;;;5055751;28;20029;-59
2023/06/11 12:21:09;;;;;;;4.53;3.63;;;;;;;;;;5055820;28;20021;-60
2023/06/11 12:23:35;;;;;;;4.78;4.03;;;;;;;;;;5055887;28;20078;-60
2023/06/11 12:26:03;;;;;;;4.25;3.72;;;;;;;;;;5055984;28;20380;-60
2023/06/11 12:28:29;;;;;;;5.43;3.63;;;;;;;;;;5055460;28;20033;-60
2023/06/11 12:30:55;;;;;;;4.35;3.95;;;;;;;;;;5055475;28;20480;-60
2023/06/11 12:33:21;;;;;;;8.07;3.40;;;;;;;;;;5055384;28;20100;-60
2023/06/11 12:35:47;;;;;;;4.53;3.20;;;;;;;;;;5055468;28;20048;-60
2023/06/11 12:38:15;;;;;;;7.40;3.50;;;;;;;;;;5056284;28;20028;-59
2023/06/11 12:40:41;;;;;;;6.38;4.20;;;;;;;;;;5055046;28;20479;-60
2023/06/11 12:43:07;;;;;;;3.35;3.05;;;;;;;;;;5055297;28;20035;-60
2023/06/11 12:45:37;;;;;;;6.53;3.53;;;;;;;;;;5055302;28;20111;-60
2023/06/11 12:48:03;;;;;;;3.90;3.10;;;;;;;;;;5055605;28;20027;-60
2023/06/11 12:50:29;;;;;;;4.45;3.70;;;;;;;;;;5055186;28;20358;-60
2023/06/11 12:52:55;;;;;;;4.75;2.83;;;;;;;;;;5054945;28;20094;-60
2023/06/11 12:55:21;;;;;;;3.53;3.17;;;;;;;;;;5055234;28;20033;-60
2023/06/11 12:57:47;;;;;;;4.35;3.85;;;;;;;;;;5054963;28;20029;-60
2023/06/11 13:00:14;;;;;;;4.85;3.50;;;;;;;;;;5054826;28;20021;-60
2023/06/11 13:02:40;;;;;;;5.30;3.58;;;;;;;;;;5054857;28;20029;-60
2023/06/11 13:05:06;;;;;;;7.68;4.03;;;;;;;;;;5055165;28;20025;-60
2023/06/11 13:07:32;;;;;;;6.93;3.45;;;;;;;;;;5055137;28;20159;-60
2023/06/11 13:09:58;;;;;;;3.70;3.40;;;;;;;;;;5054500;28;20071;-60
2023/06/11 13:12:27;;;;;;;4.93;4.07;;;;;;;;;;5055232;28;20017;-60
2023/06/11 13:14:53;;;;;;;4.10;3.58;;;;;;;;;;5055593;28;20410;-61
2023/06/11 13:17:20;;;;;;;4.47;3.60;;;;;;;;;;5054917;28;20379;-61
2023/06/11 13:19:46;;;;;;;5.20;3.80;;;;;;;;;;5054500;28;20031;-61
2023/06/11 13:22:12;;;;;;;4.70;3.58;;;;;;;;;;5055132;28;20100;-61
2023/06/11 13:24:39;;;;;;;4.15;3.75;;;;;;;;;;5054355;28;20471;-61
2023/06/11 13:27:07;;;;;;;4.40;3.72;;;;;;;;;;5054869;28;20025;-61
2023/06/11 13:29:33;;;;;;;4.10;3.15;;;;;;;;;;5055165;28;20028;-61
2023/06/11 13:31:59;;;;;;;4.05;3.65;;;;;;;;;;5054324;28;20086;-61
2023/06/11 13:34:25;;;;;;;5.05;4.18;;;;;;;;;;5054293;28;20032;-61
2023/06/11 13:36:55;;;;;;;3.78;3.45;;;;;;;;;;5054956;28;20349;-61
2023/06/11 13:39:21;;;;;;;;;;;;;;;;;;5055564;28;20398;-61
2023/06/11 13:41:47;;;;;;;3.63;2.97;;;;;;;;;;5054278;28;19905;-61
2023/06/11 13:44:13;;;;;;;4.18;3.35;;;;;;;;;;5054159;28;20114;-61
2023/06/11 13:46:39;;;;;;;4.32;3.78;;;;;;;;;;5054713;28;20114;-61
2023/06/11 13:49:05;;;;;;;5.63;3.80;;;;;;;;;;5054029;28;20024;-61
2023/06/11 13:51:32;;;;;;;4.00;3.47;;;;;;;;;;5054567;28;20028;-61
2023/06/11 13:53:59;;;;;;;3.20;2.90;;;;;;;;;;5053882;28;20037;-61
2023/06/11 13:56:25;;;;;;;4.18;3.08;;;;;;;;;;5054359;28;20536;-61
2023/06/11 13:58:51;;;;;;;5.85;4.30;;;;;;;;;;5053957;28;20032;-61
2023/06/11 14:01:17;;;;;;;3.55;3.25;;;;;;;;;;5053572;28;20493;-61
2023/06/11 14:03:43;;;;;;;4.57;3.63;;;;;;;;;;5054081;28;20029;-61
2023/06/11 14:06:09;;;;;;;4.40;3.80;;;;;;;;;;5054152;28;20021;-61
2023/06/11 14:08:35;;;;;;;5.63;3.97;;;;;;;;;;5053695;28;20032;-61
2023/06/11 14:11:01;;;;;;;3.97;3.50;;;;;;;;;;5053748;28;20025;-61
2023/06/11 14:13:27;;;;;;;4.07;3.38;;;;;;;;;;5053755;28;20053;-61
2023/06/11 14:15:54;;;;;;;8.00;3.35;;;;;;;;;;5053371;28;20132;-61
2023/06/11 14:18:20;;;;;;;4.45;3.67;;;;;;;;;;5053641;28;20043;-61
2023/06/11 14:20:46;;;;;;;4.97;3.70;;;;;;;;;;5053334;28;20014;-61
2023/06/11 14:23:12;;;;;;;4.35;3.47;;;;;;;;;;5054199;28;20025;-62
2023/06/11 14:25:38;;;;;;;4.80;3.63;;;;;;;;;;5053695;28;20029;-61
2023/06/11 14:28:05;;;;;;;3.67;3.33;;;;;;;;;;5054272;28;20029;-62
2023/06/11 14:30:30;;;;;;;4.15;3.55;;;;;;;;;;5053528;28;20029;-61
2023/06/11 14:32:57;;;;;;;4.03;3.17;;;;;;;;;;5053804;28;20094;-61
2023/06/11 14:35:23;;;;;;;4.47;3.92;;;;;;;;;;5053407;28;20108;-60
2023/06/11 14:37:50;;;;;;;4.63;4.13;;;;;;;;;;5053856;28;20080;-60
2023/06/11 14:40:16;;;;;;;3.88;3.47;;;;;;;;;;5052252;28;20068;-62